Time;durP1;ratioP1;P1;durP2;ratioP2;P2;SDS_P1;SDS_P2;PMS_P1;PMS_P2;Temp;Humidity;BMP_temperature;BMP_pressure;BME280_temperature;BME280_humidity;BME280_pressure;Samples;Min_cycle;Max_cycle;Signal;HPM_P1;HPM_P2
2023/07/14 00:00:21;;;;;;;0.60;0.60;;;;;;;20.67;100.00;99186.55;104731;1259;73809;-47
2023/07/14 00:02:50;;;;;;;0.60;0.60;;;;;;;20.68;100.00;99183.34;104737;1260;67711;-46
2023/07/14 00:05:23;;;;;;;0.70;0.70;;;;;;;20.68;100.00;99184.06;108979;1257;71353;-48
2023/07/14 00:07:50;;;;;;;1.10;0.70;;;;;;;20.65;100.00;99182.71;108692;1260;62187;-48
2023/07/14 00:10:31;;;;;;;1.10;0.90;;;;;;;20.60;100.00;99179.19;108938;1254;58838;-48
2023/07/14 00:13:04;;;;;;;3.20;0.70;;;;;;;20.51;100.00;99176.67;108825;1257;74750;-49
2023/07/14 00:15:33;;;;;;;1.10;1.00;;;;;;;20.46;100.00;99172.81;108775;1259;67891;-47
2023/07/14 00:18:10;;;;;;;0.70;0.60;;;;;;;20.45;100.00;99166.48;108879;1259;71190;-48
2023/07/14 00:20:38;;;;;;;1.00;0.70;;;;;;;20.46;100.00;99161.50;108727;1257;60424;-48
2023/07/14 00:23:11;;;;;;;3.30;0.80;;;;;;;20.48;100.00;99159.14;108834;1254;59867;-48
2023/07/14 00:25:39;;;;;;;0.70;0.70;;;;;;;20.50;100.00;99158.96;108646;1256;74903;-48
2023/07/14 00:28:24;;;;;;;1.10;0.70;;;;;;;20.49;100.00;99153.44;108815;1254;66753;-48
2023/07/14 00:30:52;;;;;;;1.10;0.70;;;;;;;20.45;100.00;99154.30;108018;1257;70417;-48
2023/07/14 00:33:19;;;;;;;1.90;0.90;;;;;;;20.40;100.00;99150.80;104410;1262;62413;-45
2023/07/14 00:35:49;;;;;;;1.00;0.90;;;;;;;20.36;100.00;99150.64;105809;1261;60412;-48
2023/07/14 00:38:17;;;;;;;0.70;0.70;;;;;;;20.35;100.00;99150.71;104776;1255;74690;-48
2023/07/14 00:40:47;;;;;;;1.10;0.90;;;;;;;20.35;100.00;99149.39;104770;1261;66021;-45
2023/07/14 00:43:17;;;;;;;2.30;0.90;;;;;;;20.37;100.00;99145.19;105812;1257;72813;-47
2023/07/14 00:45:48;;;;;;;0.80;0.80;;;;;;;20.40;100.00;99146.08;104905;1254;60734;-47
2023/07/14 00:48:18;;;;;;;0.80;0.70;;;;;;;20.42;100.00;99141.35;104755;1260;60797;-48
2023/07/14 00:51:02;;;;;;;1.50;0.90;;;;;;;20.44;100.00;99140.58;104752;1254;72589;-46
2023/07/14 00:53:38;;;;;;;1.30;0.90;;;;;;;20.44;100.00;99133.61;104530;1262;67544;-48
2023/07/14 00:56:15;;;;;;;0.90;0.90;;;;;;;20.43;100.00;99126.45;104915;1259;72702;-46
2023/07/14 00:58:49;;;;;;;0.80;0.70;;;;;;;20.44;100.00;99124.55;104920;1260;60581;-47
2023/07/14 01:01:22;;;;;;;1.00;0.80;;;;;;;20.45;100.00;99126.59;104970;1255;60558;-46
2023/07/14 01:03:51;;;;;;;0.90;0.80;;;;;;;20.47;100.00;99127.75;105171;1254;72578;-47
2023/07/14 01:06:27;;;;;;;0.70;0.70;;;;;;;20.47;100.00;99123.83;105248;1260;67910;-47
2023/07/14 01:09:00;;;;;;;1.10;0.80;;;;;;;20.48;100.00;99124.46;104788;1254;71173;-46
2023/07/14 01:11:36;;;;;;;1.10;0.80;;;;;;;20.51;100.00;99116.17;104734;1260;61789;-46
2023/07/14 01:14:06;;;;;;;0.80;0.80;;;;;;;20.52;100.00;99112.77;104887;1263;60987;-47
2023/07/14 01:16:38;;;;;;;0.80;0.80;;;;;;;20.54;100.00;99107.52;105820;1259;74486;-47
2023/07/14 01:19:09;;;;;;;1.10;0.80;;;;;;;20.56;100.00;99110.78;104878;1262;65636;-46
2023/07/14 01:21:37;;;;;;;1.00;0.90;;;;;;;20.58;100.00;99107.33;105018;1261;72420;-47
2023/07/14 01:24:18;;;;;;;2.20;1.30;;;;;;;20.57;100.00;99108.98;104941;1255;62717;-48
2023/07/14 01:27:04;;;;;;;1.70;1.10;;;;;;;20.54;100.00;99104.88;104915;1257;60540;-49
2023/07/14 01:29:32;;;;;;;1.00;0.90;;;;;;;20.51;100.00;99105.72;105113;1260;73881;-46
2023/07/14 01:32:01;;;;;;;1.00;0.90;;;;;;;20.49;100.00;99110.19;105148;1255;66327;-48
2023/07/14 01:34:28;;;;;;;2.00;0.90;;;;;;;20.47;100.00;99114.36;104971;1258;71937;-47
2023/07/14 01:36:58;;;;;;;1.10;0.90;;;;;;;20.46;100.00;99124.84;104824;1254;61722;-46
2023/07/14 01:39:26;;;;;;;2.60;1.10;;;;;;;20.47;100.00;99131.16;104869;1254;60565;-47
2023/07/14 01:41:54;;;;;;;3.50;1.10;;;;;;;20.48;100.00;99134.88;104970;1259;73845;-47
2023/07/14 01:44:22;;;;;;;2.80;1.00;;;;;;;20.50;100.00;99131.96;104746;1257;66300;-49
2023/07/14 01:46:49;;;;;;;1.30;0.90;;;;;;;20.51;100.00;99129.42;104666;1267;71936;-48
2023/07/14 01:49:39;;;;;;;1.20;0.90;;;;;;;20.52;100.00;99127.96;104879;1257;61662;-46
2023/07/14 01:52:08;;;;;;;1.40;1.00;;;;;;;20.49;100.00;99122.93;104652;1255;60752;-47
2023/07/14 01:54:39;;;;;;;1.70;1.10;;;;;;;20.47;100.00;99120.61;105504;1262;73886;-46
2023/07/14 01:57:15;;;;;;;1.10;1.00;;;;;;;20.46;100.00;99121.24;104766;1254;68378;-46
2023/07/14 01:59:46;;;;;;;4.00;1.10;;;;;;;20.46;100.00;99114.70;105984;1254;76074;-46
2023/07/14 02:02:24;;;;;;;1.40;1.30;;;;;;;20.46;100.00;99114.13;104975;1260;60492;-48
2023/07/14 02:04:51;;;;;;;2.40;1.30;;;;;;;20.48;100.00;99114.88;104649;1254;60637;-48
2023/07/14 02:07:19;;;;;;;2.00;1.40;;;;;;;20.47;100.00;99118.56;104651;1254;72269;-47
2023/07/14 02:09:47;;;;;;;1.20;1.10;;;;;;;20.47;100.00;99124.04;105845;1255;68240;-47
2023/07/14 02:12:17;;;;;;;1.30;1.10;;;;;;;20.48;100.00;99129.95;105138;1260;72671;-47
2023/07/14 02:15:05;;;;;;;1.50;1.40;;;;;;;20.49;100.00;99136.05;104484;1254;61666;-48
2023/07/14 02:17:34;;;;;;;3.80;1.30;;;;;;;20.50;100.00;99143.03;104851;1257;60434;-49
2023/07/14 02:20:06;;;;;;;5.10;1.10;;;;;;;20.52;100.00;99147.76;104496;1254;72947;-50
2023/07/14 02:22:33;;;;;;;4.60;1.60;;;;;;;20.53;100.00;99153.52;105479;1261;66301;-48
2023/07/14 02:25:04;;;;;;;1.80;1.70;;;;;;;20.53;100.00;99155.51;104503;1259;71570;-47
2023/07/14 02:27:31;;;;;;;2.50;2.30;;;;;;;20.53;100.00;99157.71;104158;1254;544663;-47
2023/07/14 02:31:56;;;;;;;2.40;2.30;;;;;;;20.55;100.00;99167.58;101749;1292;602625;-47
2023/07/14 02:34:23;;;;;;;2.60;2.40;;;;;;;20.53;100.00;99162.44;103793;1272;62725;-48
2023/07/14 02:37:41;;;;;;;3.00;2.80;;;;;;;20.53;100.00;99158.95;103715;1267;61777;-47
2023/07/14 02:40:09;;;;;;;4.50;2.50;;;;;;;20.54;100.00;99153.95;105653;1267;72354;-48
2023/07/14 02:42:37;;;;;;;2.90;2.60;;;;;;;20.55;100.00;99149.00;104520;1254;67590;-48
2023/07/14 02:45:06;;;;;;;4.30;2.60;;;;;;;20.55;100.00;99142.06;104442;1259;251844;-46
2023/07/14 02:47:35;;;;;;;3.30;3.10;;;;;;;20.55;100.00;99140.40;105724;1256;60406;-46
2023/07/14 02:50:03;;;;;;;3.20;3.00;;;;;;;20.56;100.00;99142.66;104782;1254;60664;-47
2023/07/14 02:52:30;;;;;;;3.30;3.00;;;;;;;20.56;100.00;99142.61;109029;1251;71025;-48
2023/07/14 02:54:58;;;;;;;2.50;2.40;;;;;;;20.57;100.00;99142.77;108973;1252;66912;-48
2023/07/14 02:57:25;;;;;;;4.60;3.20;;;;;;;20.58;100.00;99151.03;108996;1254;71355;-48
2023/07/14 02:59:52;;;;;;;2.80;2.60;;;;;;;20.58;100.00;99152.27;109247;1256;59395;-48
2023/07/14 03:02:21;;;;;;;2.50;2.30;;;;;;;20.59;100.00;99149.43;109103;1252;58823;-48
2023/07/14 03:04:48;;;;;;;2.50;2.40;;;;;;;20.60;100.00;99150.25;109129;1253;71324;-49
2023/07/14 03:07:15;;;;;;;2.40;2.30;;;;;;;20.61;100.00;99152.51;109082;1259;68068;-48
2023/07/14 03:09:43;;;;;;;2.60;1.60;;;;;;;20.63;100.00;99152.73;109142;1254;73299;-48
2023/07/14 03:12:10;;;;;;;2.00;1.90;;;;;;;20.63;100.00;99149.93;109228;1253;60418;-49
2023/07/14 03:14:38;;;;;;;2.20;2.00;;;;;;;20.64;100.00;99144.20;109231;1253;58802;-48
2023/07/14 03:17:05;;;;;;;1.70;1.50;;;;;;;20.65;100.00;99141.35;109251;1252;73030;-48
2023/07/14 03:19:33;;;;;;;1.50;1.40;;;;;;;20.67;100.00;99139.93;109194;1254;66758;-48
2023/07/14 03:22:00;;;;;;;2.10;1.90;;;;;;;20.68;100.00;99139.62;109184;1254;71680;-48
2023/07/14 03:24:28;;;;;;;1.80;1.50;;;;;;;20.69;100.00;99136.77;108908;1254;60642;-47
2023/07/14 03:26:55;;;;;;;2.40;2.10;;;;;;;20.70;100.00;99133.77;109183;1253;57718;-50
2023/07/14 03:29:23;;;;;;;1.30;1.20;;;;;;;20.71;100.00;99137.11;109071;1253;72980;-49
2023/07/14 03:31:50;;;;;;;2.20;1.40;;;;;;;20.72;100.00;99140.84;105588;1254;67853;-49
2023/07/14 03:34:18;;;;;;;1.20;1.10;;;;;;;20.73;100.00;99142.05;104801;1257;72722;-45
2023/07/14 03:36:45;;;;;;;2.00;1.30;;;;;;;20.73;100.00;99143.52;104946;1254;59667;-49
2023/07/14 03:39:24;;;;;;;1.60;1.50;;;;;;;20.73;100.00;99140.98;105028;1254;60031;-47
2023/07/14 03:41:52;;;;;;;3.70;1.50;;;;;;;20.71;100.00;99145.29;104884;1254;73116;-45
2023/07/14 03:44:20;;;;;;;1.40;1.30;;;;;;;20.69;100.00;99142.58;105729;1254;66647;-46
2023/07/14 03:46:47;;;;;;;2.90;1.60;;;;;;;20.68;100.00;99149.05;105037;1254;71396;-45
2023/07/14 03:49:15;;;;;;;2.60;1.70;;;;;;;20.66;100.00;99153.27;106305;1253;64008;-46
2023/07/14 03:51:42;;;;;;;2.30;2.00;;;;;;;20.64;100.00;99153.09;104926;1258;60099;-45
2023/07/14 03:54:10;;;;;;;1.90;1.80;;;;;;;20.63;100.00;99148.32;104892;1254;71758;-45
2023/07/14 03:56:37;;;;;;;1.90;1.80;;;;;;;20.61;100.00;99150.71;105017;1254;68069;-47
2023/07/14 03:59:05;;;;;;;2.40;2.20;;;;;;;20.58;100.00;99149.98;104815;1254;72418;-47
2023/07/14 04:01:32;;;;;;;3.00;1.80;;;;;;;20.55;100.00;99149.11;105311;1254;62192;-46
2023/07/14 04:04:00;;;;;;;3.70;1.60;;;;;;;20.54;100.00;99151.21;104606;1254;60091;-47
2023/07/14 04:06:31;;;;;;;2.30;2.10;;;;;;;20.52;100.00;99155.02;105092;1254;72121;-48
2023/07/14 04:08:59;;;;;;;4.20;2.60;;;;;;;20.52;100.00;99156.57;105153;1260;68031;-46
2023/07/14 04:11:33;;;;;;;2.70;2.60;;;;;;;20.50;100.00;99159.88;105224;1258;72662;-46
2023/07/14 04:14:02;;;;;;;2.30;2.20;;;;;;;20.48;100.00;99156.98;105728;1259;60392;-46
2023/07/14 04:16:29;;;;;;;2.50;2.30;;;;;;;20.47;100.00;99160.89;104800;1259;59667;-47
2023/07/14 04:18:57;;;;;;;2.00;1.90;;;;;;;20.47;100.00;99163.45;105118;1257;71839;-46
2023/07/14 04:21:24;;;;;;;2.60;2.40;;;;;;;20.46;100.00;99158.97;104975;1259;67499;-45
2023/07/14 04:23:52;;;;;;;2.60;2.00;;;;;;;20.46;100.00;99164.95;105031;1254;72746;-47
2023/07/14 04:26:20;;;;;;;2.60;2.40;;;;;;;20.47;100.00;99164.34;104979;1253;61602;-46
2023/07/14 04:28:48;;;;;;;4.60;2.80;;;;;;;20.47;100.00;99164.55;105915;1254;60050;-45
2023/07/14 04:31:15;;;;;;;4.50;2.50;;;;;;;20.48;100.00;99164.84;104917;1256;71879;-44
2023/07/14 04:33:44;;;;;;;4.40;2.80;;;;;;;20.47;100.00;99160.86;106398;1259;67557;-46
2023/07/14 04:36:12;;;;;;;2.30;2.20;;;;;;;20.47;100.00;99162.53;106567;1254;72681;-46
2023/07/14 04:38:41;;;;;;;3.20;3.00;;;;;;;20.47;100.00;99167.63;105051;1260;60385;-46
2023/07/14 04:41:12;;;;;;;2.60;2.50;;;;;;;20.47;100.00;99169.64;105795;1254;59966;-48
2023/07/14 04:43:40;;;;;;;2.90;2.50;;;;;;;20.46;100.00;99171.89;105220;1254;72997;-47
2023/07/14 04:46:11;;;;;;;3.10;2.30;;;;;;;20.45;100.00;99176.87;105077;1259;68407;-47
2023/07/14 04:48:39;;;;;;;3.30;3.10;;;;;;;20.44;100.00;99182.88;105154;1254;71361;-46
2023/07/14 04:51:06;;;;;;;2.90;2.60;;;;;;;20.42;100.00;99185.92;105002;1266;60378;-46
2023/07/14 04:53:34;;;;;;;5.10;2.50;;;;;;;20.42;100.00;99188.17;105560;1254;60190;-46
2023/07/14 04:56:01;;;;;;;3.10;2.20;;;;;;;20.41;100.00;99187.38;105027;1257;72492;-46
2023/07/14 04:58:28;;;;;;;2.30;2.10;;;;;;;20.37;100.00;99191.11;105028;1256;65769;-47
2023/07/14 05:00:56;;;;;;;3.10;2.70;;;;;;;20.35;100.00;99192.58;105102;1257;73241;-47
2023/07/14 05:03:25;;;;;;;2.70;2.60;;;;;;;20.33;100.00;99193.04;105094;1260;60410;-46
2023/07/14 05:05:53;;;;;;;4.10;3.10;;;;;;;20.30;100.00;99193.98;105430;1253;59662;-46
2023/07/14 05:08:20;;;;;;;3.00;2.30;;;;;;;20.27;100.00;99197.17;105062;1257;72171;-47
2023/07/14 05:10:48;;;;;;;3.60;2.70;;;;;;;20.24;100.00;99194.55;105146;1254;67688;-47
2023/07/14 05:13:15;;;;;;;2.70;2.50;;;;;;;20.21;100.00;99198.88;104821;1259;71430;-50
2023/07/14 05:15:44;;;;;;;4.20;2.80;;;;;;;20.18;100.00;99200.45;105020;1254;61747;-47
2023/07/14 05:18:15;;;;;;;3.00;2.70;;;;;;;20.14;100.00;99202.64;104947;1257;60506;-47
2023/07/14 05:20:43;;;;;;;4.30;2.20;;;;;;;20.10;100.00;99199.04;104861;1254;71812;-47
2023/07/14 05:23:11;;;;;;;6.20;3.20;;;;;;;20.08;100.00;99194.02;105300;1259;68194;-48
2023/07/14 05:25:39;;;;;;;2.80;2.60;;;;;;;20.06;100.00;99195.13;104940;1257;71430;-47
2023/07/14 05:28:06;;;;;;;2.80;2.60;;;;;;;20.04;100.00;99194.17;105103;1256;61620;-46
2023/07/14 05:30:33;;;;;;;2.20;1.90;;;;;;;20.02;100.00;99195.95;105050;1255;60000;-48
2023/07/14 05:33:01;;;;;;;2.60;2.50;;;;;;;20.01;100.00;99199.55;104998;1254;71976;-47
2023/07/14 05:35:28;;;;;;;2.80;2.50;;;;;;;19.99;100.00;99210.13;104990;1254;67872;-47
2023/07/14 05:37:59;;;;;;;2.80;2.20;;;;;;;19.95;100.00;99216.50;104915;1254;73821;-46
2023/07/14 05:40:27;;;;;;;3.90;2.30;;;;;;;19.92;100.00;99229.78;105222;1260;62226;-49
2023/07/14 05:43:01;;;;;;;4.10;2.60;;;;;;;19.87;100.00;99227.15;105655;1255;59763;-46
2023/07/14 05:45:29;;;;;;;2.80;2.10;;;;;;;19.85;100.00;99234.10;104919;1254;72968;-47
2023/07/14 05:47:56;;;;;;;4.50;2.00;;;;;;;19.81;100.00;99238.95;104949;1257;67518;-48
2023/07/14 05:50:24;;;;;;;4.30;2.20;;;;;;;19.78;100.00;99230.72;104855;1255;72447;-48
2023/07/14 05:52:52;;;;;;;3.00;2.70;;;;;;;19.74;100.00;99229.62;109077;1252;61622;-46
2023/07/14 05:55:19;;;;;;;5.80;2.50;;;;;;;19.72;100.00;99226.83;109121;1254;60334;-49
2023/07/14 05:57:47;;;;;;;4.10;2.40;;;;;;;19.67;100.00;99223.39;108958;1260;71945;-47
2023/07/14 06:00:16;;;;;;;3.60;2.30;;;;;;;19.62;100.00;99228.92;109132;1253;68449;-46
2023/07/14 06:02:46;;;;;;;4.00;2.10;;;;;;;19.58;100.00;99230.95;109165;1252;72512;-46
2023/07/14 06:05:14;;;;;;;2.50;2.00;;;;;;;19.56;100.00;99233.20;109123;1253;62046;-46
2023/07/14 06:07:42;;;;;;;1.80;1.70;;;;;;;19.55;100.00;99237.98;109094;1254;58746;-46
2023/07/14 06:10:10;;;;;;;3.00;2.10;;;;;;;19.57;100.00;99242.00;109120;1254;73062;-46
2023/07/14 06:12:38;;;;;;;2.00;1.80;;;;;;;19.56;100.00;99245.52;109142;1255;66324;-46
2023/07/14 06:15:06;;;;;;;1.90;1.80;;;;;;;19.56;100.00;99246.23;109119;1254;73180;-47
2023/07/14 06:17:33;;;;;;;4.00;2.40;;;;;;;19.58;100.00;99245.34;109033;1254;60449;-46
2023/07/14 06:20:01;;;;;;;3.20;2.00;;;;;;;19.59;100.00;99242.18;109146;1254;58813;-46
2023/07/14 06:22:29;;;;;;;4.10;2.20;;;;;;;19.60;100.00;99239.31;109167;1254;73127;-47
2023/07/14 06:24:57;;;;;;;2.50;1.80;;;;;;;19.63;100.00;99238.86;105399;1254;68065;-46
2023/07/14 06:27:25;;;;;;;2.60;2.20;;;;;;;19.67;100.00;99227.61;104964;1259;71386;-46
2023/07/14 06:29:52;;;;;;;3.20;2.00;;;;;;;19.71;100.00;99227.77;105123;1259;61656;-46
2023/07/14 06:32:21;;;;;;;1.70;1.60;;;;;;;19.75;100.00;99222.48;105484;1259;60095;-47
2023/07/14 06:34:49;;;;;;;1.50;1.40;;;;;;;19.78;100.00;99221.44;104546;1261;73059;-47
2023/07/14 06:37:16;;;;;;;8.90;2.50;;;;;;;19.83;100.00;99222.09;104837;1257;68007;-47
2023/07/14 06:39:43;;;;;;;2.00;1.50;;;;;;;19.86;100.00;99224.64;104902;1257;70454;-47
2023/07/14 06:42:11;;;;;;;3.10;2.00;;;;;;;19.86;100.00;99220.83;104836;1260;60757;-48
2023/07/14 06:44:38;;;;;;;1.70;1.60;;;;;;;19.88;100.00;99218.85;104983;1253;60685;-47
2023/07/14 06:47:06;;;;;;;2.40;2.20;;;;;;;19.91;100.00;99226.23;104766;1261;72620;-47
2023/07/14 06:49:34;;;;;;;3.20;2.40;;;;;;;19.94;100.00;99229.58;105648;1254;67766;-47
2023/07/14 06:52:03;;;;;;;1.80;1.70;;;;;;;19.98;100.00;99227.56;105519;1260;72661;-48
2023/07/14 06:54:31;;;;;;;3.50;1.50;;;;;;;20.00;100.00;99228.61;104929;1254;61390;-48
2023/07/14 06:56:58;;;;;;;1.50;1.40;;;;;;;20.00;100.00;99234.97;104957;1254;60440;-48
2023/07/14 06:59:26;;;;;;;2.10;1.90;;;;;;;20.00;100.00;99242.62;105109;1260;73818;-47
2023/07/14 07:01:53;;;;;;;3.20;1.60;;;;;;;20.00;100.00;99244.95;104838;1260;67735;-48
2023/07/14 07:04:21;;;;;;;4.60;2.00;;;;;;;20.02;100.00;99257.02;104887;1254;72648;-47
2023/07/14 07:06:48;;;;;;;3.30;1.60;;;;;;;20.04;100.00;99264.14;104861;1260;61728;-47
2023/07/14 07:09:16;;;;;;;3.00;1.50;;;;;;;20.06;100.00;99265.81;104788;1255;60563;-44
2023/07/14 07:11:43;;;;;;;3.70;1.80;;;;;;;20.07;100.00;99266.24;105028;1260;73775;-49
2023/07/14 07:14:10;;;;;;;2.00;1.80;;;;;;;20.08;100.00;99275.73;104821;1259;66294;-46
2023/07/14 07:16:38;;;;;;;2.90;1.80;;;;;;;20.10;100.00;99282.15;104917;1259;71070;-47
2023/07/14 07:19:06;;;;;;;3.00;1.60;;;;;;;20.13;100.00;99278.54;104929;1257;60528;-46
2023/07/14 07:21:33;;;;;;;3.20;1.70;;;;;;;20.14;100.00;99283.38;104778;1254;60516;-46
2023/07/14 07:24:03;;;;;;;3.10;1.20;;;;;;;20.15;100.00;99284.78;104919;1254;72559;-47
2023/07/14 07:26:31;;;;;;;2.20;1.50;;;;;;;20.14;100.00;99287.77;105456;1260;66832;-46
2023/07/14 07:28:59;;;;;;;3.20;1.60;;;;;;;20.12;100.00;99289.76;105019;1258;72674;-46
2023/07/14 07:31:28;;;;;;;4.00;1.70;;;;;;;20.15;100.00;99288.06;104726;1260;60563;-46
2023/07/14 07:33:55;;;;;;;1.40;1.30;;;;;;;20.15;100.00;99289.64;104901;1256;60440;-46
2023/07/14 07:36:24;;;;;;;2.90;1.60;;;;;;;20.14;100.00;99291.98;104645;1256;74451;-48
2023/07/14 07:38:52;;;;;;;2.80;1.20;;;;;;;20.14;100.00;99297.80;104890;1259;69302;-48
2023/07/14 07:41:21;;;;;;;1.50;1.30;;;;;;;20.15;100.00;99298.78;104913;1260;73605;-45
2023/07/14 07:43:49;;;;;;;1.50;1.40;;;;;;;20.18;100.00;99311.83;104705;1260;60711;-48
2023/07/14 07:46:16;;;;;;;1.80;1.30;;;;;;;20.21;100.00;99316.58;104885;1260;61211;-48
2023/07/14 07:48:44;;;;;;;1.50;1.40;;;;;;;20.25;100.00;99319.99;106376;1254;73832;-46
2023/07/14 07:51:12;;;;;;;5.90;1.50;;;;;;;20.30;100.00;99325.89;105170;1259;67834;-48
2023/07/14 07:53:40;;;;;;;3.00;1.40;;;;;;;20.35;100.00;99324.52;104999;1261;72657;-47
2023/07/14 07:56:08;;;;;;;1.80;1.30;;;;;;;20.41;100.00;99319.66;104919;1257;60560;-48
2023/07/14 07:58:36;;;;;;;6.50;1.50;;;;;;;20.45;100.00;99313.46;104930;1260;61223;-47
2023/07/14 08:01:04;;;;;;;3.30;1.70;;;;;;;20.48;100.00;99312.20;104787;1256;72571;-46
2023/07/14 08:03:33;;;;;;;1.60;1.30;;;;;;;20.51;100.00;99313.55;104753;1260;66725;-47
2023/07/14 08:06:03;;;;;;;1.50;1.30;;;;;;;20.52;100.00;99307.97;104843;1259;73320;-48
2023/07/14 08:08:31;;;;;;;1.60;1.50;;;;;;;20.54;100.00;99311.05;105217;1260;62125;-47
2023/07/14 08:10:58;;;;;;;3.20;1.30;;;;;;;20.58;100.00;99308.90;105731;1259;60662;-48
2023/07/14 08:13:28;;;;;;;1.80;1.10;;;;;;;20.61;100.00;99305.65;104788;1260;73775;-46
2023/07/14 08:15:57;;;;;;;2.00;1.60;;;;;;;20.64;100.00;99301.71;104929;1267;66401;-48
2023/07/14 08:18:25;;;;;;;2.10;1.40;;;;;;;20.67;100.00;99299.60;105363;1253;73173;-47
2023/07/14 08:20:53;;;;;;;3.00;1.20;;;;;;;20.70;100.00;99298.52;105006;1254;61641;-46
2023/07/14 08:23:21;;;;;;;6.00;1.50;;;;;;;20.76;100.00;99304.02;104978;1254;60502;-48
2023/07/14 08:25:57;;;;;;;1.50;1.30;;;;;;;20.82;100.00;99302.91;104845;1258;74724;-48
2023/07/14 08:28:25;;;;;;;3.00;1.20;;;;;;;20.93;100.00;99300.65;105666;1260;70223;-47
2023/07/14 08:30:55;;;;;;;1.90;1.20;;;;;;;21.06;100.00;99300.30;105859;1254;72635;-48
2023/07/14 08:33:23;;;;;;;1.50;1.10;;;;;;;21.20;100.00;99297.35;104853;1257;61674;-48
2023/07/14 08:35:51;;;;;;;2.20;1.30;;;;;;;21.35;100.00;99295.05;104988;1254;60563;-48
2023/07/14 08:38:19;;;;;;;1.40;1.10;;;;;;;21.49;100.00;99296.38;105075;1257;73187;-47
2023/07/14 08:40:53;;;;;;;5.50;1.30;;;;;;;21.64;100.00;99293.91;105131;1257;68523;-46
2023/07/14 08:43:41;;;;;;;1.60;1.20;;;;;;;21.80;100.00;99290.54;104767;1254;71396;-45
2023/07/14 08:46:59;;;;;;;2.20;1.20;;;;;;;21.95;100.00;99288.80;105058;1254;61647;-48
2023/07/14 08:49:31;;;;;;;1.40;1.10;;;;;;;22.11;100.00;99300.14;104642;1254;60635;-45
2023/07/14 08:52:03;;;;;;;4.70;1.10;;;;;;;22.20;100.00;99295.36;109025;1254;72578;-49
2023/07/14 08:54:41;;;;;;;2.50;1.40;;;;;;;22.28;100.00;99290.70;109053;1254;68549;-47
2023/07/14 08:57:15;;;;;;;2.90;1.40;;;;;;;22.35;100.00;99291.27;109090;1254;71846;-46
2023/07/14 08:59:43;;;;;;;5.60;1.20;;;;;;;22.38;100.00;99287.80;108979;1253;62208;-48
2023/07/14 09:02:23;;;;;;;1.50;1.10;;;;;;;22.40;100.00;99287.90;108967;1254;59126;-49
2023/07/14 09:05:39;;;;;;;2.00;1.20;;;;;;;22.45;100.00;99283.96;108973;1254;73844;-46
2023/07/14 09:08:09;;;;;;;1.20;1.10;;;;;;;22.51;100.00;99277.02;109060;1253;68436;-47
2023/07/14 09:10:39;;;;;;;3.90;1.00;;;;;;;22.57;100.00;99266.90;109210;1254;72645;-49
2023/07/14 09:13:15;;;;;;;3.30;1.00;;;;;;;22.64;100.00;99256.86;109090;1254;61712;-48
2023/07/14 09:15:42;;;;;;;2.70;0.90;;;;;;;22.73;100.00;99251.34;108935;1252;61054;-46
2023/07/14 09:18:38;;;;;;;1.40;1.00;;;;;;;22.85;100.00;99248.98;109135;1254;73771;-48
2023/07/14 09:21:16;;;;;;;3.00;0.90;;;;;;;22.95;100.00;99242.15;109227;1253;66550;-48
2023/07/14 09:23:53;;;;;;;0.70;0.70;;;;;;;23.06;100.00;99251.08;109026;1253;71075;-47
2023/07/14 09:26:32;;;;;;;2.30;0.80;;;;;;;23.17;100.00;99242.05;109114;1257;60053;-47
2023/07/14 09:29:04;;;;;;;1.60;1.10;;;;;;;23.23;100.00;99239.50;106943;1257;62308;-48
2023/07/14 09:31:54;;;;;;;2.00;0.80;;;;;;;23.30;100.00;99242.38;104899;1255;72677;-48
2023/07/14 09:34:39;;;;;;;0.90;0.90;;;;;;;23.39;100.00;99241.20;104863;1254;68044;-46
2023/07/14 09:37:21;;;;;;;1.00;0.70;;;;;;;23.48;100.00;99235.67;105528;1258;73158;-45
2023/07/14 09:40:02;;;;;;;1.10;0.70;;;;;;;23.57;100.00;99240.59;105113;1259;60599;-47
2023/07/14 09:42:32;;;;;;;0.90;0.80;;;;;;;23.62;100.00;99238.89;104950;1254;60559;-47
2023/07/14 09:45:09;;;;;;;0.80;0.70;;;;;;;23.65;100.00;99234.89;105857;1254;72667;-47
2023/07/14 09:47:36;;;;;;;0.90;0.70;;;;;;;23.68;100.00;99233.70;104979;1254;68029;-48
2023/07/14 09:50:05;;;;;;;2.10;0.60;;;;;;;23.72;100.00;99234.70;104724;1260;72635;-48
2023/07/14 09:52:32;;;;;;;1.50;0.60;;;;;;;23.78;100.00;99230.75;104813;1254;60591;-47
2023/07/14 09:54:59;;;;;;;1.10;0.50;;;;;;;23.81;100.00;99227.67;104783;1254;61156;-47
2023/07/14 09:57:32;;;;;;;3.30;0.70;;;;;;;23.85;100.00;99228.69;104841;1254;74307;-47
2023/07/14 10:00:28;;;;;;;1.40;0.50;;;;;;;23.89;100.00;99224.14;105732;1257;66635;-49
2023/07/14 10:03:02;;;;;;;0.70;0.60;;;;;;;23.95;100.00;99223.69;104797;1257;72478;-46
2023/07/14 10:05:36;;;;;;;2.10;0.50;;;;;;;24.02;100.00;99222.52;104959;1255;60970;-47
2023/07/14 10:08:04;;;;;;;;;;;;;;;24.10;100.00;99219.97;105119;1260;60627;-48
2023/07/14 10:10:34;;;;;;;0.50;0.50;;;;;;;24.17;100.00;99213.84;104746;1254;75101;-48
2023/07/14 10:13:15;;;;;;;0.70;0.60;;;;;;;24.24;100.00;99214.56;105261;1254;69311;-47
2023/07/14 10:15:42;;;;;;;0.70;0.60;;;;;;;24.33;100.00;99211.56;104699;1260;72682;-46
2023/07/14 10:18:13;;;;;;;0.80;0.50;;;;;;;24.40;100.00;99205.77;104755;1258;60533;-50
2023/07/14 10:20:42;;;;;;;3.00;0.60;;;;;;;24.46;100.00;99206.38;104984;1252;60647;-47
2023/07/14 10:23:14;;;;;;;1.20;0.50;;;;;;;24.52;100.00;99208.36;105041;1254;72735;-46
2023/07/14 10:25:46;;;;;;;12.70;2.70;;;;;;;24.61;100.00;99207.41;105048;1260;66398;-47
2023/07/14 10:28:15;;;;;;;1.50;0.80;;;;;;;24.69;100.00;99209.92;105181;1259;71363;-47
2023/07/14 10:31:03;;;;;;;1.80;0.90;;;;;;;24.74;100.00;99208.60;104920;1257;60655;-49
2023/07/14 10:33:55;;;;;;;1.30;0.60;;;;;;;24.78;100.00;99207.73;105938;1254;60630;-48
2023/07/14 10:36:26;;;;;;;4.30;1.00;;;;;;;24.74;100.00;99210.47;105232;1259;72259;-47
2023/07/14 10:38:57;;;;;;;0.60;0.60;;;;;;;24.68;100.00;99214.56;104894;1260;66637;-47
2023/07/14 10:41:25;;;;;;;2.40;0.70;;;;;;;24.65;100.00;99211.32;104858;1254;71274;-46
2023/07/14 10:44:01;;;;;;;0.80;0.60;;;;;;;24.60;100.00;99214.41;104874;1257;60457;-47
2023/07/14 10:46:32;;;;;;;0.60;0.60;;;;;;;24.58;100.00;99208.29;104877;1259;60473;-45
2023/07/14 10:49:22;;;;;;;1.60;0.50;;;;;;;24.61;100.00;99198.80;105414;1253;73755;-48
2023/07/14 10:52:03;;;;;;;2.20;0.70;;;;;;;24.69;100.00;99194.30;105446;1259;67889;-48
2023/07/14 10:55:03;;;;;;;1.80;0.60;;;;;;;24.81;100.00;99191.95;104963;1254;73154;-47
2023/07/14 10:57:37;;;;;;;0.70;0.60;;;;;;;24.97;100.00;99197.33;104742;1257;60623;-47
2023/07/14 11:00:42;;;;;;;0.60;0.60;;;;;;;25.06;100.00;99194.95;105804;1254;61009;-47
2023/07/14 11:03:16;;;;;;;4.30;0.90;;;;;;;25.12;100.00;99198.62;104751;1254;73837;-47
2023/07/14 11:05:58;;;;;;;1.70;0.70;;;;;;;25.08;100.00;99199.89;104685;1254;67062;-47
2023/07/14 11:08:27;;;;;;;1.00;0.70;;;;;;;25.01;100.00;99202.23;104733;1257;71859;-46
2023/07/14 11:11:09;;;;;;;0.90;0.80;;;;;;;24.96;100.00;99202.63;105035;1259;60540;-46
2023/07/14 11:14:15;;;;;;;2.60;0.80;;;;;;;24.91;100.00;99207.36;105246;1259;60498;-46
2023/07/14 11:17:04;;;;;;;3.10;1.30;;;;;;;24.87;100.00;99206.30;104896;1254;73792;-49
2023/07/14 11:19:52;;;;;;;1.30;0.60;;;;;;;24.88;100.00;99210.95;105309;1254;66697;-47
2023/07/14 11:22:46;;;;;;;1.10;0.70;;;;;;;24.93;100.00;99211.89;104707;1256;71475;-47
2023/07/14 11:25:24;;;;;;;2.30;0.70;;;;;;;24.97;100.00;99202.48;105164;1255;62811;-46
2023/07/14 11:28:27;;;;;;;1.30;0.70;;;;;;;24.97;100.00;99196.61;104835;1260;60476;-47
2023/07/14 11:30:55;;;;;;;1.60;1.40;;;;;;;24.92;100.00;99205.77;104696;1254;74317;-46
2023/07/14 11:33:37;;;;;;;2.50;0.60;;;;;;;24.85;100.00;99204.86;105553;1254;68005;-48
2023/07/14 11:36:13;;;;;;;0.80;0.60;;;;;;;24.79;100.00;99204.90;104591;1259;72743;-47
2023/07/14 11:38:59;;;;;;;0.70;0.70;;;;;;;24.73;100.00;99203.45;104479;1256;60523;-46